Portada
METAR-TAF:

METAR-TAF

Aeroports :

Jimmy Lake, Saskatchewan, Canadà

latitud: 54-55N, longitud: 109-57W, altitud: 658 m

Observació

L'informe es va fer fa 1 hora i 12 minuts, a les 02:00 UTC
Vent 2 kt del Sud-Oest
Temperatura -6°C
Humitat 86%
Pressió 1005 hPa
Visibilitat: 12.9 km
Escasses núvols a una alçada de 7900 ft

METAR: CWHN 250200Z AUTO 23002KT 8SM FEW079 M06/M08 A2967 RMK SLP091

Hora: 21:12 (03:12 UTC)


TAF: manca

Observacions i pronòstics meteorològics de més de 4000 aeroports (METAR i TAF).

Les estacions disponibles són els punts grocs i vermells al mapa.

Posi el ratolí al punt desitjat per veure el nom de l'estació.

Feu clic per veure les observacions i els pronòstics meteorològics.

Per canviar el mapa: feu clic els botons verds amb una creu de color negre per apropar; al botó verd amb un guió per allunyar la imatge; o en les fletxes verdes per a mapes adjacents.


METAR-TAF: